sensor_id;sensor_type;location;lat;lon;timestamp;pressure;altitude;pressure_sealevel;temperature;humidity
49759;BME280;35654;46.080;11.118;2023-03-23T00:01:05;99269.59;;;12.73;65.41
49759;BME280;35654;46.080;11.118;2023-03-23T00:03:32;99279.25;;;12.70;66.32
49759;BME280;35654;46.080;11.118;2023-03-23T00:05:59;99288.00;;;12.72;65.86
49759;BME280;35654;46.080;11.118;2023-03-23T00:08:36;99278.75;;;12.68;65.55
49759;BME280;35654;46.080;11.118;2023-03-23T00:11:04;99281.28;;;12.65;65.74
49759;BME280;35654;46.080;11.118;2023-03-23T00:13:30;99280.53;;;12.51;66.11
49759;BME280;35654;46.080;11.118;2023-03-23T00:15:59;99279.94;;;12.40;66.91
49759;BME280;35654;46.080;11.118;2023-03-23T00:18:25;99285.97;;;12.42;67.18
49759;BME280;35654;46.080;11.118;2023-03-23T00:20:55;99279.34;;;12.43;66.96
49759;BME280;35654;46.080;11.118;2023-03-23T00:23:23;99276.09;;;12.41;67.19
49759;BME280;35654;46.080;11.118;2023-03-23T00:25:54;99278.75;;;12.33;67.53
49759;BME280;35654;46.080;11.118;2023-03-23T00:28:23;99285.88;;;12.34;67.63
49759;BME280;35654;46.080;11.118;2023-03-23T00:31:03;99274.78;;;12.39;67.58
49759;BME280;35654;46.080;11.118;2023-03-23T00:33:31;99277.81;;;12.37;67.46
49759;BME280;35654;46.080;11.118;2023-03-23T00:36:04;99277.03;;;12.37;67.58
49759;BME280;35654;46.080;11.118;2023-03-23T00:38:31;99279.88;;;12.32;67.50
49759;BME280;35654;46.080;11.118;2023-03-23T00:40:58;99282.59;;;12.32;67.67
49759;BME280;35654;46.080;11.118;2023-03-23T00:43:29;99275.50;;;12.31;67.60
49759;BME280;35654;46.080;11.118;2023-03-23T00:45:56;99273.56;;;12.31;67.65
49759;BME280;35654;46.080;11.118;2023-03-23T00:48:23;99275.81;;;12.29;68.06
49759;BME280;35654;46.080;11.118;2023-03-23T00:50:49;99275.91;;;12.24;68.14
49759;BME280;35654;46.080;11.118;2023-03-23T00:53:16;99276.53;;;12.21;68.37
49759;BME280;35654;46.080;11.118;2023-03-23T00:55:44;99268.91;;;12.18;68.51
49759;BME280;35654;46.080;11.118;2023-03-23T00:58:11;99274.72;;;12.16;68.53
49759;BME280;35654;46.080;11.118;2023-03-23T01:00:38;99274.31;;;12.09;68.91
49759;BME280;35654;46.080;11.118;2023-03-23T01:03:05;99272.50;;;12.05;69.08
49759;BME280;35654;46.080;11.118;2023-03-23T01:05:34;99270.06;;;11.90;69.66
49759;BME280;35654;46.080;11.118;2023-03-23T01:08:01;99273.84;;;11.80;69.84
49759;BME280;35654;46.080;11.118;2023-03-23T01:10:28;99273.31;;;11.78;70.16
49759;BME280;35654;46.080;11.118;2023-03-23T01:12:54;99270.56;;;11.78;70.63
49759;BME280;35654;46.080;11.118;2023-03-23T01:15:21;99273.31;;;11.78;70.55
49759;BME280;35654;46.080;11.118;2023-03-23T01:17:47;99266.94;;;11.83;70.23
49759;BME280;35654;46.080;11.118;2023-03-23T01:20:14;99274.03;;;11.84;69.89
49759;BME280;35654;46.080;11.118;2023-03-23T01:22:41;99267.13;;;11.86;69.65
49759;BME280;35654;46.080;11.118;2023-03-23T01:25:09;99253.91;;;11.88;69.56
49759;BME280;35654;46.080;11.118;2023-03-23T01:27:36;99247.13;;;11.86;69.56
49759;BME280;35654;46.080;11.118;2023-03-23T01:30:03;99249.16;;;11.80;69.83
49759;BME280;35654;46.080;11.118;2023-03-23T01:32:32;99252.72;;;11.81;69.83
49759;BME280;35654;46.080;11.118;2023-03-23T01:34:58;99250.75;;;11.81;69.95
49759;BME280;35654;46.080;11.118;2023-03-23T01:37:25;99253.31;;;11.78;70.32
49759;BME280;35654;46.080;11.118;2023-03-23T01:39:56;99251.34;;;11.64;70.70
49759;BME280;35654;46.080;11.118;2023-03-23T01:42:23;99255.00;;;11.46;71.69
49759;BME280;35654;46.080;11.118;2023-03-23T01:47:19;99254.69;;;11.48;71.95
49759;BME280;35654;46.080;11.118;2023-03-23T01:49:49;99246.66;;;11.51;72.00
49759;BME280;35654;46.080;11.118;2023-03-23T01:52:20;99254.41;;;11.49;72.10
49759;BME280;35654;46.080;11.118;2023-03-23T01:54:50;99245.47;;;11.44;72.30
49759;BME280;35654;46.080;11.118;2023-03-23T01:57:19;99242.81;;;11.39;73.05
49759;BME280;35654;46.080;11.118;2023-03-23T01:59:49;99240.47;;;11.46;72.32
49759;BME280;35654;46.080;11.118;2023-03-23T02:02:18;99237.94;;;11.49;72.53
49759;BME280;35654;46.080;11.118;2023-03-23T02:04:46;99236.81;;;11.50;72.21
49759;BME280;35654;46.080;11.118;2023-03-23T02:07:14;99241.69;;;11.53;71.95
49759;BME280;35654;46.080;11.118;2023-03-23T02:09:42;99238.94;;;11.53;71.94
49759;BME280;35654;46.080;11.118;2023-03-23T02:12:08;99243.53;;;11.44;71.71
49759;BME280;35654;46.080;11.118;2023-03-23T02:14:35;99248.19;;;11.30;72.49
49759;BME280;35654;46.080;11.118;2023-03-23T02:17:11;99246.03;;;11.27;72.72
49759;BME280;35654;46.080;11.118;2023-03-23T02:27:50;99239.53;;;11.23;73.00
49759;BME280;35654;46.080;11.118;2023-03-23T02:30:29;99242.50;;;11.27;72.90
49759;BME280;35654;46.080;11.118;2023-03-23T02:35:48;99241.44;;;11.23;73.16
49759;BME280;35654;46.080;11.118;2023-03-23T02:38:25;99237.72;;;11.19;72.30
49759;BME280;35654;46.080;11.118;2023-03-23T02:40:54;99242.28;;;11.23;71.70
49759;BME280;35654;46.080;11.118;2023-03-23T02:43:23;99230.19;;;11.24;71.77
49759;BME280;35654;46.080;11.118;2023-03-23T02:45:50;99226.31;;;11.25;71.85
49759;BME280;35654;46.080;11.118;2023-03-23T02:48:18;99231.09;;;11.20;72.04
49759;BME280;35654;46.080;11.118;2023-03-23T02:50:47;99229.59;;;11.14;72.14
49759;BME280;35654;46.080;11.118;2023-03-23T02:53:16;99234.47;;;11.17;72.59
49759;BME280;35654;46.080;11.118;2023-03-23T02:55:44;99223.28;;;11.13;72.49
49759;BME280;35654;46.080;11.118;2023-03-23T02:58:11;99217.78;;;10.99;72.97
49759;BME280;35654;46.080;11.118;2023-03-23T03:00:37;99228.31;;;10.92;73.79
49759;BME280;35654;46.080;11.118;2023-03-23T03:03:05;99230.53;;;10.90;73.73
49759;BME280;35654;46.080;11.118;2023-03-23T03:11:14;99221.94;;;10.97;73.37
49759;BME280;35654;46.080;11.118;2023-03-23T03:19:28;99226.47;;;10.88;73.52
49759;BME280;35654;46.080;11.118;2023-03-23T03:21:56;99234.47;;;10.84;73.92
49759;BME280;35654;46.080;11.118;2023-03-23T03:24:25;99234.47;;;10.84;74.09
49759;BME280;35654;46.080;11.118;2023-03-23T03:26:54;99232.31;;;10.81;73.98
49759;BME280;35654;46.080;11.118;2023-03-23T03:29:25;99230.28;;;10.73;74.52
49759;BME280;35654;46.080;11.118;2023-03-23T03:31:52;99231.19;;;10.69;75.22
49759;BME280;35654;46.080;11.118;2023-03-23T03:34:23;99232.28;;;10.68;74.92
49759;BME280;35654;46.080;11.118;2023-03-23T03:36:50;99236.56;;;10.74;74.73
49759;BME280;35654;46.080;11.118;2023-03-23T03:39:18;99240.25;;;10.83;74.28
49759;BME280;35654;46.080;11.118;2023-03-23T03:41:47;99243.50;;;10.85;73.93
49759;BME280;35654;46.080;11.118;2023-03-23T03:44:14;99244.00;;;10.87;73.86
49759;BME280;35654;46.080;11.118;2023-03-23T03:46:41;99248.88;;;10.90;73.87
49759;BME280;35654;46.080;11.118;2023-03-23T03:49:08;99248.66;;;10.86;73.94
49759;BME280;35654;46.080;11.118;2023-03-23T03:51:35;99248.38;;;10.88;73.90
49759;BME280;35654;46.080;11.118;2023-03-23T03:54:02;99256.28;;;10.89;73.47
49759;BME280;35654;46.080;11.118;2023-03-23T03:56:29;99252.81;;;10.84;73.92
49759;BME280;35654;46.080;11.118;2023-03-23T03:58:58;99253.03;;;10.87;73.52
49759;BME280;35654;46.080;11.118;2023-03-23T04:01:26;99260.66;;;10.90;73.63
49759;BME280;35654;46.080;11.118;2023-03-23T04:03:52;99255.19;;;10.90;73.79
49759;BME280;35654;46.080;11.118;2023-03-23T04:06:19;99254.69;;;10.88;73.87
49759;BME280;35654;46.080;11.118;2023-03-23T04:08:46;99254.97;;;10.87;73.86
49759;BME280;35654;46.080;11.118;2023-03-23T04:11:13;99255.56;;;10.84;74.17
49759;BME280;35654;46.080;11.118;2023-03-23T04:13:40;99258.91;;;10.81;74.19
49759;BME280;35654;46.080;11.118;2023-03-23T04:16:07;99261.94;;;10.79;74.24
49759;BME280;35654;46.080;11.118;2023-03-23T04:18:34;99256.56;;;10.74;74.52
49759;BME280;35654;46.080;11.118;2023-03-23T04:21:01;99256.03;;;10.72;74.55
49759;BME280;35654;46.080;11.118;2023-03-23T04:23:29;99260.47;;;10.68;74.82
49759;BME280;35654;46.080;11.118;2023-03-23T04:25:57;99263.59;;;10.62;74.92
49759;BME280;35654;46.080;11.118;2023-03-23T04:28:23;99265.69;;;10.51;75.92
49759;BME280;35654;46.080;11.118;2023-03-23T04:30:51;99257.47;;;10.51;75.83
49759;BME280;35654;46.080;11.118;2023-03-23T04:33:22;99262.44;;;10.49;75.88
49759;BME280;35654;46.080;11.118;2023-03-23T04:35:51;99267.69;;;10.45;75.98
49759;BME280;35654;46.080;11.118;2023-03-23T04:38:20;99268.78;;;10.44;76.28
49759;BME280;35654;46.080;11.118;2023-03-23T04:40:47;99271.75;;;10.48;75.85
49759;BME280;35654;46.080;11.118;2023-03-23T04:43:18;99279.72;;;10.44;76.61
49759;BME280;35654;46.080;11.118;2023-03-23T04:45:52;99271.75;;;10.48;76.41
49759;BME280;35654;46.080;11.118;2023-03-23T04:48:27;99281.28;;;10.50;76.31
49759;BME280;35654;46.080;11.118;2023-03-23T04:50:54;99282.59;;;10.53;75.91
49759;BME280;35654;46.080;11.118;2023-03-23T04:53:20;99278.47;;;10.56;75.97
49759;BME280;35654;46.080;11.118;2023-03-23T04:55:47;99279.00;;;10.58;76.05
49759;BME280;35654;46.080;11.118;2023-03-23T04:58:14;99283.44;;;10.53;75.91
49759;BME280;35654;46.080;11.118;2023-03-23T05:00:42;99279.69;;;10.49;76.05
49759;BME280;35654;46.080;11.118;2023-03-23T05:03:18;99282.19;;;10.46;76.00
49759;BME280;35654;46.080;11.118;2023-03-23T05:05:45;99284.78;;;10.37;76.42
49759;BME280;35654;46.080;11.118;2023-03-23T05:08:18;99290.59;;;10.31;77.38
49759;BME280;35654;46.080;11.118;2023-03-23T05:10:55;99278.19;;;10.38;76.88
49759;BME280;35654;46.080;11.118;2023-03-23T05:13:22;99277.53;;;10.46;76.78
49759;BME280;35654;46.080;11.118;2023-03-23T05:15:49;99285.16;;;10.49;76.86
49759;BME280;35654;46.080;11.118;2023-03-23T05:18:18;99296.38;;;10.48;76.64
49759;BME280;35654;46.080;11.118;2023-03-23T05:20:46;99291.56;;;10.40;76.26
49759;BME280;35654;46.080;11.118;2023-03-23T05:23:11;99295.78;;;10.32;77.04
49759;BME280;35654;46.080;11.118;2023-03-23T05:25:39;99302.09;;;10.33;77.23
49759;BME280;35654;46.080;11.118;2023-03-23T05:28:07;99306.19;;;10.30;76.99
49759;BME280;35654;46.080;11.118;2023-03-23T05:30:35;99308.16;;;10.30;77.59
49759;BME280;35654;46.080;11.118;2023-03-23T05:33:00;99307.59;;;10.28;77.61
49759;BME280;35654;46.080;11.118;2023-03-23T05:35:26;99310.56;;;10.31;77.75
49759;BME280;35654;46.080;11.118;2023-03-23T05:37:52;99309.63;;;10.41;77.29
49759;BME280;35654;46.080;11.118;2023-03-23T05:40:20;99315.31;;;10.44;77.27
49759;BME280;35654;46.080;11.118;2023-03-23T05:42:47;99314.44;;;10.49;76.77
49759;BME280;35654;46.080;11.118;2023-03-23T05:45:13;99327.00;;;10.50;76.80
49759;BME280;35654;46.080;11.118;2023-03-23T05:47:39;99323.91;;;10.57;76.63
49759;BME280;35654;46.080;11.118;2023-03-23T05:50:05;99325.25;;;10.59;75.96
49759;BME280;35654;46.080;11.118;2023-03-23T05:52:31;99328.06;;;10.54;76.46
49759;BME280;35654;46.080;11.118;2023-03-23T05:54:57;99336.84;;;10.51;76.49
49759;BME280;35654;46.080;11.118;2023-03-23T05:57:22;99337.09;;;10.55;76.77
49759;BME280;35654;46.080;11.118;2023-03-23T05:59:49;99332.88;;;10.62;76.53
49759;BME280;35654;46.080;11.118;2023-03-23T06:02:14;99336.34;;;10.68;76.32
49759;BME280;35654;46.080;11.118;2023-03-23T06:04:40;99345.75;;;10.80;76.03
49759;BME280;35654;46.080;11.118;2023-03-23T06:07:07;99345.00;;;10.93;75.58
49759;BME280;35654;46.080;11.118;2023-03-23T06:09:38;99350.81;;;11.05;74.92
49759;BME280;35654;46.080;11.118;2023-03-23T06:12:05;99351.16;;;11.18;74.54
49759;BME280;35654;46.080;11.118;2023-03-23T06:14:32;99341.66;;;11.29;73.97
49759;BME280;35654;46.080;11.118;2023-03-23T06:16:58;99354.91;;;11.40;73.65
49759;BME280;35654;46.080;11.118;2023-03-23T06:19:23;99350.47;;;11.44;73.44
49759;BME280;35654;46.080;11.118;2023-03-23T06:21:51;99349.09;;;11.42;72.97
49759;BME280;35654;46.080;11.118;2023-03-23T06:24:17;99355.00;;;11.35;73.49
49759;BME280;35654;46.080;11.118;2023-03-23T06:26:42;99358.88;;;11.48;73.43
49759;BME280;35654;46.080;11.118;2023-03-23T06:29:09;99351.72;;;11.65;72.73
49759;BME280;35654;46.080;11.118;2023-03-23T06:31:41;99351.38;;;11.86;72.27
49759;BME280;35654;46.080;11.118;2023-03-23T06:34:08;99354.31;;;12.03;72.02
49759;BME280;35654;46.080;11.118;2023-03-23T06:36:35;99349.53;;;12.22;71.88
49759;BME280;35654;46.080;11.118;2023-03-23T06:39:01;99357.25;;;12.47;71.20
49759;BME280;35654;46.080;11.118;2023-03-23T06:41:30;99354.97;;;12.63;69.31
49759;BME280;35654;46.080;11.118;2023-03-23T06:43:57;99356.91;;;12.62;67.78
49759;BME280;35654;46.080;11.118;2023-03-23T06:46:23;99363.63;;;12.70;67.26
49759;BME280;35654;46.080;11.118;2023-03-23T06:48:48;99367.75;;;12.81;66.52
49759;BME280;35654;46.080;11.118;2023-03-23T06:51:15;99362.84;;;12.92;65.49
49759;BME280;35654;46.080;11.118;2023-03-23T06:53:41;99362.91;;;13.00;64.92
49759;BME280;35654;46.080;11.118;2023-03-23T06:56:06;99357.59;;;13.17;64.92
49759;BME280;35654;46.080;11.118;2023-03-23T06:58:32;99362.56;;;13.15;63.98
49759;BME280;35654;46.080;11.118;2023-03-23T07:00:58;99361.59;;;13.33;63.44
49759;BME280;35654;46.080;11.118;2023-03-23T07:03:25;99359.31;;;13.35;61.88
49759;BME280;35654;46.080;11.118;2023-03-23T07:05:54;99353.81;;;13.35;61.89
49759;BME280;35654;46.080;11.118;2023-03-23T07:08:19;99359.06;;;13.46;61.58
49759;BME280;35654;46.080;11.118;2023-03-23T07:10:47;99359.88;;;13.46;60.11
49759;BME280;35654;46.080;11.118;2023-03-23T07:13:13;99359.25;;;13.49;59.59
49759;BME280;35654;46.080;11.118;2023-03-23T07:15:39;99357.03;;;13.60;58.88
49759;BME280;35654;46.080;11.118;2023-03-23T07:18:04;99353.16;;;13.61;58.66
49759;BME280;35654;46.080;11.118;2023-03-23T07:20:31;99359.63;;;13.56;58.94
49759;BME280;35654;46.080;11.118;2023-03-23T07:22:56;99351.72;;;13.63;62.73
49759;BME280;35654;46.080;11.118;2023-03-23T07:25:24;99353.41;;;13.73;62.13
49759;BME280;35654;46.080;11.118;2023-03-23T07:27:49;99350.81;;;13.68;60.91
49759;BME280;35654;46.080;11.118;2023-03-23T07:30:14;99349.78;;;13.64;59.71
49759;BME280;35654;46.080;11.118;2023-03-23T07:32:40;99349.31;;;13.62;59.29
49759;BME280;35654;46.080;11.118;2023-03-23T07:35:05;99348.16;;;13.63;58.75
49759;BME280;35654;46.080;11.118;2023-03-23T07:37:32;99340.91;;;13.67;59.36
49759;BME280;35654;46.080;11.118;2023-03-23T07:39:57;99341.50;;;13.55;59.12
49759;BME280;35654;46.080;11.118;2023-03-23T07:42:24;99341.28;;;13.52;59.20
49759;BME280;35654;46.080;11.118;2023-03-23T07:44:50;99332.28;;;13.60;59.42
49759;BME280;35654;46.080;11.118;2023-03-23T07:47:16;99334.22;;;13.90;58.78
49759;BME280;35654;46.080;11.118;2023-03-23T07:49:43;99338.34;;;14.10;57.66
49759;BME280;35654;46.080;11.118;2023-03-23T07:52:10;99333.13;;;14.39;57.06
49759;BME280;35654;46.080;11.118;2023-03-23T07:54:37;99332.34;;;14.64;55.88
49759;BME280;35654;46.080;11.118;2023-03-23T07:57:03;99335.59;;;14.83;55.64
49759;BME280;35654;46.080;11.118;2023-03-23T07:59:30;99336.75;;;14.82;55.33
49759;BME280;35654;46.080;11.118;2023-03-23T08:01:58;99333.16;;;15.07;54.20
49759;BME280;35654;46.080;11.118;2023-03-23T08:04:23;99335.44;;;15.23;52.96
49759;BME280;35654;46.080;11.118;2023-03-23T08:06:48;99342.41;;;15.03;53.61
49759;BME280;35654;46.080;11.118;2023-03-23T08:09:14;99335.28;;;15.10;53.56
49759;BME280;35654;46.080;11.118;2023-03-23T08:11:40;99331.09;;;15.04;53.26
49759;BME280;35654;46.080;11.118;2023-03-23T08:14:05;99323.94;;;14.95;53.87
49759;BME280;35654;46.080;11.118;2023-03-23T08:16:30;99330.56;;;15.02;53.92
49759;BME280;35654;46.080;11.118;2023-03-23T08:18:58;99338.03;;;15.19;53.13
49759;BME280;35654;46.080;11.118;2023-03-23T08:21:23;99335.75;;;15.47;52.27
49759;BME280;35654;46.080;11.118;2023-03-23T08:23:48;99319.69;;;15.95;50.43
49759;BME280;35654;46.080;11.118;2023-03-23T08:26:14;99320.47;;;16.04;49.82
49759;BME280;35654;46.080;11.118;2023-03-23T08:28:40;99314.84;;;16.51;48.62
49759;BME280;35654;46.080;11.118;2023-03-23T08:31:09;99322.66;;;16.49;48.45
49759;BME280;35654;46.080;11.118;2023-03-23T08:33:35;99322.91;;;16.35;48.82
49759;BME280;35654;46.080;11.118;2023-03-23T08:36:00;99310.44;;;16.79;47.62
49759;BME280;35654;46.080;11.118;2023-03-23T08:38:26;99316.31;;;16.77;47.58
49759;BME280;35654;46.080;11.118;2023-03-23T08:40:56;99309.69;;;17.11;47.42
49759;BME280;35654;46.080;11.118;2023-03-23T08:43:22;99298.28;;;17.13;46.22
49759;BME280;35654;46.080;11.118;2023-03-23T08:45:47;99304.03;;;17.40;45.76
49759;BME280;35654;46.080;11.118;2023-03-23T08:48:12;99311.91;;;17.83;44.53
49759;BME280;35654;46.080;11.118;2023-03-23T08:50:38;99311.09;;;18.19;43.71
49759;BME280;35654;46.080;11.118;2023-03-23T08:53:03;99311.56;;;18.21;43.48
49759;BME280;35654;46.080;11.118;2023-03-23T08:55:28;99315.59;;;17.99;44.33
49759;BME280;35654;46.080;11.118;2023-03-23T08:57:54;99312.94;;;18.15;43.61
49759;BME280;35654;46.080;11.118;2023-03-23T09:00:20;99316.16;;;17.81;44.47
49759;BME280;35654;46.080;11.118;2023-03-23T09:02:50;99313.09;;;17.62;45.11
49759;BME280;35654;46.080;11.118;2023-03-23T09:05:16;99316.44;;;16.60;47.87
49759;BME280;35654;46.080;11.118;2023-03-23T09:07:43;99305.09;;;16.95;47.46
49759;BME280;35654;46.080;11.118;2023-03-23T09:10:09;99309.28;;;16.59;48.59
49759;BME280;35654;46.080;11.118;2023-03-23T09:12:35;99311.84;;;16.64;48.88
49759;BME280;35654;46.080;11.118;2023-03-23T09:15:01;99322.84;;;16.73;48.75
49759;BME280;35654;46.080;11.118;2023-03-23T09:17:28;99320.09;;;16.94;47.59
49759;BME280;35654;46.080;11.118;2023-03-23T09:19:53;99309.25;;;17.21;47.12
49759;BME280;35654;46.080;11.118;2023-03-23T09:22:20;99311.50;;;17.61;46.21
49759;BME280;35654;46.080;11.118;2023-03-23T09:24:48;99309.81;;;17.92;45.81
49759;BME280;35654;46.080;11.118;2023-03-23T09:27:14;99315.59;;;17.99;45.93
49759;BME280;35654;46.080;11.118;2023-03-23T09:29:41;99314.78;;;18.35;44.37
49759;BME280;35654;46.080;11.118;2023-03-23T09:32:06;99314.78;;;18.35;44.17
49759;BME280;35654;46.080;11.118;2023-03-23T09:34:33;99304.50;;;18.60;42.47
49759;BME280;35654;46.080;11.118;2023-03-23T09:37:00;99300.56;;;18.73;41.96
49759;BME280;35654;46.080;11.118;2023-03-23T09:39:29;99299.16;;;18.79;41.46
49759;BME280;35654;46.080;11.118;2023-03-23T09:42:02;99302.06;;;19.10;41.15
49759;BME280;35654;46.080;11.118;2023-03-23T09:47:40;99292.53;;;19.51;40.84
49759;BME280;35654;46.080;11.118;2023-03-23T09:50:15;99305.19;;;19.80;39.93
49759;BME280;35654;46.080;11.118;2023-03-23T09:55:14;99291.03;;;19.54;40.47
49759;BME280;35654;46.080;11.118;2023-03-23T09:57:41;99288.69;;;19.71;39.56
49759;BME280;35654;46.080;11.118;2023-03-23T10:00:10;99284.50;;;19.34;40.70
49759;BME280;35654;46.080;11.118;2023-03-23T10:07:48;99299.84;;;19.87;39.80
49759;BME280;35654;46.080;11.118;2023-03-23T10:10:14;99292.84;;;19.93;39.18
49759;BME280;35654;46.080;11.118;2023-03-23T10:12:45;99288.16;;;19.97;39.56
49759;BME280;35654;46.080;11.118;2023-03-23T10:15:23;99300.47;;;20.27;39.14
49759;BME280;35654;46.080;11.118;2023-03-23T10:17:56;99292.41;;;20.07;38.87
49759;BME280;35654;46.080;11.118;2023-03-23T10:25:36;99285.75;;;19.64;39.84
49759;BME280;35654;46.080;11.118;2023-03-23T10:30:38;99281.97;;;19.29;41.09
49759;BME280;35654;46.080;11.118;2023-03-23T10:38:14;99272.38;;;18.47;42.68
49759;BME280;35654;46.080;11.118;2023-03-23T10:40:50;99263.50;;;19.21;41.60
49759;BME280;35654;46.080;11.118;2023-03-23T10:43:16;99251.75;;;20.87;38.34
49759;BME280;35654;46.080;11.118;2023-03-23T10:45:41;99242.06;;;23.52;33.88
49759;BME280;35654;46.080;11.118;2023-03-23T10:48:18;99236.97;;;25.88;29.44
49759;BME280;35654;46.080;11.118;2023-03-23T10:50:45;99222.69;;;27.85;26.99
49759;BME280;35654;46.080;11.118;2023-03-23T10:53:23;99228.75;;;29.06;24.90
49759;BME280;35654;46.080;11.118;2023-03-23T10:55:49;99219.06;;;29.67;23.76
49759;BME280;35654;46.080;11.118;2023-03-23T10:58:30;99211.06;;;29.89;23.35
49759;BME280;35654;46.080;11.118;2023-03-23T11:00:57;99212.50;;;28.01;25.63
49759;BME280;35654;46.080;11.118;2023-03-23T11:03:24;99214.66;;;28.31;25.48
49759;BME280;35654;46.080;11.118;2023-03-23T11:05:58;99198.28;;;28.56;24.90
49759;BME280;35654;46.080;11.118;2023-03-23T11:08:25;99194.81;;;29.43;24.46
49759;BME280;35654;46.080;11.118;2023-03-23T11:10:53;99187.28;;;29.06;24.34
49759;BME280;35654;46.080;11.118;2023-03-23T11:13:20;99187.06;;;31.61;21.85
49759;BME280;35654;46.080;11.118;2023-03-23T11:15:46;99186.25;;;32.25;20.97
49759;BME280;35654;46.080;11.118;2023-03-23T11:18:19;99187.25;;;32.03;20.89
49759;BME280;35654;46.080;11.118;2023-03-23T11:20:46;99180.97;;;30.02;23.01
49759;BME280;35654;46.080;11.118;2023-03-23T11:23:20;99179.91;;;30.62;22.65
49759;BME280;35654;46.080;11.118;2023-03-23T11:25:50;99170.53;;;30.22;22.88
49759;BME280;35654;46.080;11.118;2023-03-23T11:28:17;99176.13;;;30.69;22.53
49759;BME280;35654;46.080;11.118;2023-03-23T11:30:44;99173.84;;;31.19;22.09
49759;BME280;35654;46.080;11.118;2023-03-23T11:33:11;99177.69;;;31.64;21.37
49759;BME280;35654;46.080;11.118;2023-03-23T11:35:43;99166.81;;;30.06;22.95
49759;BME280;35654;46.080;11.118;2023-03-23T11:38:17;99163.50;;;31.12;21.73
49759;BME280;35654;46.080;11.118;2023-03-23T11:40:44;99166.63;;;31.86;21.40
49759;BME280;35654;46.080;11.118;2023-03-23T11:43:13;99161.22;;;31.76;21.38
49759;BME280;35654;46.080;11.118;2023-03-23T11:45:50;99158.69;;;30.31;22.43
49759;BME280;35654;46.080;11.118;2023-03-23T11:56:14;99140.06;;;32.12;20.63
49759;BME280;35654;46.080;11.118;2023-03-23T11:58:56;99127.22;;;32.24;20.37
49759;BME280;35654;46.080;11.118;2023-03-23T12:20:22;99102.69;;;30.85;20.86
49759;BME280;35654;46.080;11.118;2023-03-23T12:31:15;99091.59;;;31.78;19.40
49759;BME280;35654;46.080;11.118;2023-03-23T12:33:54;99078.19;;;32.68;18.90
49759;BME280;35654;46.080;11.118;2023-03-23T12:44:46;99064.81;;;32.81;18.42
49759;BME280;35654;46.080;11.118;2023-03-23T12:49:43;99057.41;;;34.63;16.72
49759;BME280;35654;46.080;11.118;2023-03-23T12:52:14;99055.53;;;33.91;17.26
49759;BME280;35654;46.080;11.118;2023-03-23T12:54:50;99049.69;;;30.33;20.82
49759;BME280;35654;46.080;11.118;2023-03-23T12:58:02;99041.03;;;28.17;23.36
49759;BME280;35654;46.080;11.118;2023-03-23T13:08:39;99034.47;;;30.27;21.27
49759;BME280;35654;46.080;11.118;2023-03-23T13:10:48;99027.31;;;28.83;23.27
49759;BME280;35654;46.080;11.118;2023-03-23T13:13:23;99031.59;;;28.65;23.71
49759;BME280;35654;46.080;11.118;2023-03-23T13:16:04;99022.91;;;28.52;24.12
49759;BME280;35654;46.080;11.118;2023-03-23T13:21:10;99026.25;;;27.72;24.77
49759;BME280;35654;46.080;11.118;2023-03-23T13:23:42;99016.94;;;28.77;23.59
49759;BME280;35654;46.080;11.118;2023-03-23T13:26:12;99022.72;;;29.20;22.80
49759;BME280;35654;46.080;11.118;2023-03-23T13:28:57;99009.25;;;28.20;24.39
49759;BME280;35654;46.080;11.118;2023-03-23T13:31:27;99021.31;;;26.15;26.92
49759;BME280;35654;46.080;11.118;2023-03-23T13:34:39;99009.94;;;26.47;26.31
49759;BME280;35654;46.080;11.118;2023-03-23T13:36:59;99016.81;;;27.52;25.22
49759;BME280;35654;46.080;11.118;2023-03-23T13:39:28;99009.28;;;28.17;24.38
49759;BME280;35654;46.080;11.118;2023-03-23T13:42:03;98998.59;;;28.92;23.64
49759;BME280;35654;46.080;11.118;2023-03-23T13:44:40;99005.09;;;29.39;23.17
49759;BME280;35654;46.080;11.118;2023-03-23T13:47:34;99005.34;;;28.11;24.33
49759;BME280;35654;46.080;11.118;2023-03-23T13:49:54;98995.88;;;29.12;22.70
49759;BME280;35654;46.080;11.118;2023-03-23T13:52:24;99004.56;;;27.69;24.23
49759;BME280;35654;46.080;11.118;2023-03-23T13:54:50;98993.16;;;27.02;24.76
49759;BME280;35654;46.080;11.118;2023-03-23T13:57:23;98988.69;;;27.52;24.56
49759;BME280;35654;46.080;11.118;2023-03-23T13:59:49;98980.34;;;28.73;23.12
49759;BME280;35654;46.080;11.118;2023-03-23T14:02:57;98986.88;;;26.00;25.49
49759;BME280;35654;46.080;11.118;2023-03-23T14:07:54;98987.00;;;27.14;24.20
49759;BME280;35654;46.080;11.118;2023-03-23T14:10:21;98976.06;;;28.01;23.69
49759;BME280;35654;46.080;11.118;2023-03-23T14:12:49;98966.16;;;28.23;23.20
49759;BME280;35654;46.080;11.118;2023-03-23T14:15:15;98964.31;;;27.76;23.57
49759;BME280;35654;46.080;11.118;2023-03-23T14:17:43;98967.22;;;26.77;24.92
49759;BME280;35654;46.080;11.118;2023-03-23T14:20:25;98963.88;;;26.41;25.35
49759;BME280;35654;46.080;11.118;2023-03-23T14:22:54;98957.63;;;27.22;24.54
49759;BME280;35654;46.080;11.118;2023-03-23T14:25:22;98944.44;;;26.60;25.04
49759;BME280;35654;46.080;11.118;2023-03-23T14:27:51;98961.19;;;27.67;24.25
49759;BME280;35654;46.080;11.118;2023-03-23T14:30:21;98961.19;;;27.30;24.09
49759;BME280;35654;46.080;11.118;2023-03-23T14:32:48;98955.81;;;27.46;24.20
49759;BME280;35654;46.080;11.118;2023-03-23T14:35:36;98962.72;;;26.93;24.74
49759;BME280;35654;46.080;11.118;2023-03-23T14:38:00;98959.72;;;27.14;24.85
49759;BME280;35654;46.080;11.118;2023-03-23T14:40:26;98958.66;;;27.39;24.88
49759;BME280;35654;46.080;11.118;2023-03-23T14:42:53;98957.72;;;27.90;24.23
49759;BME280;35654;46.080;11.118;2023-03-23T14:45:21;98955.59;;;28.61;23.42